LFLBLFMH

Guest
Details From LFLB - Aix-Les-Bains
To LFMH - Saint Etienne Boutheon
Flight Number -
Tags generated
Created
Modified
Stats Distance 67 nm / 125 km
Max Altitude 3,100 ft / 945 m
Waypoints 3
Social Downloads 4
Likes 0
Share VATSIM

Download

Looking for another format? Having issues loading an existing format? Contact us
Advertisement - Login to hide

Notes

Basic altitude profile: - Ascent Rate: 800ft/min - Ascent Speed: 100kts - Cruise Altitude: 6000ft - Cruise Speed: 140kts - Descent Rate: 800ft/min - Descent Speed: 100kts

Route

LFLB NAVLA LFMH

ID Type Via Altitude Latitude Longitude Leg Dist Tot Dist Heading (true) Name
O LFLB APT - 0 ft / 0 m 45.63623˚ 5.88090˚ - 0 nm - Aix-Les-Bains
NAVLA FIX - 3,100 ft / 945 m 45.66722˚ 5.66694˚ 9 nm 9 nm 282° / 282° -
O LFMH APT - 0 ft / 0 m 45.54087˚ 4.29645˚ 58 nm 67 nm 263° / 262° Saint Etienne Boutheon

Altitude Profile

Advertisement - Login to hide

LFLB

Details ICAO LFLB (CMF)
Name Aix-Les-Bains
Region France
Timezone Europe/Paris (UTC+1.0)
Stats Elevation 779 ft / 237 m (AMSL)
Location 45.636234° 5.880898°
Runways 2
Magnetic Variation 1.689° E

METAR

LFLB 110230Z AUTO 23015KT 200V260 9999 FEW004 OVC100 09/05 Q0987

Decode

TAF

TAF LFLB 102204Z 1022/1118 CNL

Decode

Departure Runways

ID Width Length Bearing (true) Bearing (mag) Surface Threshold Offset Overrun Length
18 148 ft / 45 m 5,452 ft / 1,662 m 176.72° 175.03° Asphalt 26 ft / 8 m 774 ft / 236 m
18L 197 ft / 60 m 2,309 ft / 704 m 176.70° 175.01° Grass 0 ft / 0 m 0 ft / 0 m
36 148 ft / 45 m 5,452 ft / 1,662 m 356.72° 355.03° Asphalt 23 ft / 7 m 456 ft / 139 m
36R 197 ft / 60 m 2,309 ft / 704 m 356.70° 355.01° Grass 315 ft / 96 m 0 ft / 0 m

LFMH

Details ICAO LFMH (EBU)
Name Saint Etienne Boutheon
Region France
Timezone Europe/Paris (UTC+1.0)
Stats Elevation 1,325 ft / 404 m (AMSL)
Location 45.540868° 4.296450°
Runways 1
Magnetic Variation 1.286° E

METAR

LFMH 110230Z AUTO 17019KT CAVOK 12/06 Q0983 BECMG 17015G30KT

Decode

TAF

TAF LFMH 110200Z 1103/1203 17015G30KT 9999 BKN040 OVC070 TEMPO 1106/1110 3000 RA SCT020 OVC040 TEMPO 1105/1109 18025G45KT BECMG 1114/1116 20010KT PROB30 1120/1203 5000 SHRA SCT020TCU BKN025

Decode

Destination Runways

ID Width Length Bearing (true) Bearing (mag) Surface Threshold Offset Overrun Length
18 148 ft / 45 m 7,568 ft / 2,307 m 174.93° 173.64° Asphalt 984 ft / 300 m 0 ft / 0 m
36 148 ft / 45 m 7,568 ft / 2,307 m 354.93° 353.64° Asphalt 558 ft / 170 m 0 ft / 0 m

Approach Navaids

Runway Type Ident Frequency Range Bearing (true) Bearing (mag) Slope Elevation
18 Localiser EB 110.35 MHz 18 nm / 33 km 174.93° 173.65° - 1,330 ft / 405 m (AMSL)
18 Glidescope EB 110.35 MHz 10 nm / 19 km 174.93° 173.65° 3.00° 1,297 ft / 395 m (AMSL)
18 DME EB 110.35 MHz 18 nm / 33 km - - - 1,352 ft / 412 m (AMSL)
36 Localiser EB 110.90 MHz 18 nm / 33 km 354.69° 353.40° - 1,325 ft / 404 m (AMSL)
36 Glidescope EB 110.90 MHz 10 nm / 19 km 354.93° 353.65° 3.00° 1,325 ft / 404 m (AMSL)

Popular Alternatives